createdAt,value
2022-08-26T00:03:46.393Z,22.52
2022-08-26T00:08:50.864Z,22.45
2022-08-26T00:13:53.802Z,22.40
2022-08-26T00:18:56.932Z,22.23
2022-08-26T00:24:01.169Z,22.13
2022-08-26T00:29:04.660Z,22.16
2022-08-26T00:34:09.316Z,22.20
2022-08-26T00:39:14.170Z,22.27
2022-08-26T00:44:19.125Z,22.18
2022-08-26T00:49:33.649Z,22.13
2022-08-26T00:54:46.592Z,22.05
2022-08-26T00:59:52.616Z,22.04
2022-08-26T01:04:59.008Z,22.09
2022-08-26T01:10:07.143Z,22.04
2022-08-26T01:15:11.709Z,21.79
2022-08-26T01:20:22.832Z,21.69
2022-08-26T01:25:30.046Z,21.71
2022-08-26T01:30:33.254Z,21.75
2022-08-26T01:35:37.527Z,21.72
2022-08-26T01:40:44.007Z,21.73
2022-08-26T01:45:47.899Z,21.66
2022-08-26T01:50:51.613Z,21.56
2022-08-26T01:55:58.098Z,21.56
2022-08-26T02:01:01.004Z,21.58
2022-08-26T02:06:09.147Z,21.54
2022-08-26T02:11:14.070Z,21.60
2022-08-26T02:16:17.786Z,21.58
2022-08-26T02:21:20.655Z,21.55
2022-08-26T02:26:26.909Z,21.55
2022-08-26T02:31:30.482Z,21.57
2022-08-26T02:36:33.285Z,21.55
2022-08-26T02:41:40.331Z,21.47
2022-08-26T02:46:48.298Z,21.43
2022-08-26T02:51:51.989Z,21.33
2022-08-26T02:56:56.539Z,21.35
2022-08-26T03:02:00.392Z,21.35
2022-08-26T03:07:03.240Z,21.30
2022-08-26T03:12:07.812Z,21.18
2022-08-26T03:17:10.961Z,20.80
2022-08-26T03:22:14.559Z,20.91
2022-08-26T03:27:19.477Z,21.07
2022-08-26T03:32:22.243Z,21.05
2022-08-26T03:37:29.932Z,20.99
2022-08-26T03:42:34.060Z,21.05
2022-08-26T03:47:36.839Z,20.95
2022-08-26T03:52:43.929Z,20.87
2022-08-26T03:57:48.424Z,20.80
2022-08-26T04:02:53.360Z,20.77
2022-08-26T04:07:56.374Z,20.79
2022-08-26T04:13:00.806Z,20.78
2022-08-26T04:18:03.614Z,20.69
2022-08-26T04:23:06.564Z,20.66
2022-08-26T04:28:11.651Z,20.68
2022-08-26T04:33:14.567Z,20.65
2022-08-26T04:38:19.846Z,20.62
2022-08-26T04:43:24.238Z,20.62
2022-08-26T04:48:28.408Z,20.71
2022-08-26T04:53:32.176Z,20.84
2022-08-26T04:58:36.701Z,20.92
2022-08-26T05:03:39.461Z,20.86
2022-08-26T05:08:43.821Z,20.68
2022-08-26T05:13:48.265Z,20.81
2022-08-26T05:18:54.882Z,20.67
2022-08-26T05:23:57.863Z,20.42
2022-08-26T05:29:02.540Z,20.38
2022-08-26T05:34:06.913Z,20.60
2022-08-26T05:39:10.498Z,20.86
2022-08-26T05:44:18.672Z,21.11
2022-08-26T05:49:26.212Z,21.11
2022-08-26T05:54:29.244Z,21.20
2022-08-26T05:59:33.302Z,21.37
2022-08-26T06:04:38.514Z,21.47
2022-08-26T06:09:41.527Z,21.43
2022-08-26T06:14:45.604Z,21.61
2022-08-26T06:19:51.758Z,21.80
2022-08-26T06:25:12.079Z,22.02
2022-08-26T06:30:16.623Z,22.27
2022-08-26T06:35:19.618Z,22.46
2022-08-26T06:40:24.524Z,22.50
2022-08-26T06:45:29.183Z,22.51
2022-08-26T06:50:34.055Z,22.61
2022-08-26T06:55:40.904Z,22.74
2022-08-26T07:00:47.331Z,22.90
2022-08-26T07:05:50.459Z,23.06
2022-08-26T07:10:56.274Z,23.15
2022-08-26T07:16:03.019Z,23.28
2022-08-26T07:21:07.722Z,23.37
2022-08-26T07:26:16.165Z,23.47
2022-08-26T07:31:21.779Z,23.59
2022-08-26T07:36:25.211Z,23.70
2022-08-26T07:46:37.118Z,24.06
2022-08-26T07:51:40.269Z,24.03
2022-08-26T07:56:44.242Z,23.98
2022-08-26T08:01:48.557Z,24.00
2022-08-26T08:06:51.401Z,24.04
2022-08-26T08:11:54.516Z,24.02
2022-08-26T08:16:58.757Z,24.13
2022-08-26T08:22:03.371Z,24.26
2022-08-26T08:27:10.702Z,24.44
2022-08-26T08:32:15.481Z,24.73
2022-08-26T08:37:18.345Z,24.97
2022-08-26T08:42:35.442Z,24.98
2022-08-26T08:47:42.069Z,24.96
2022-08-26T08:52:46.394Z,25.02
2022-08-26T08:58:02.406Z,25.05
2022-08-26T09:03:11.890Z,25.11
2022-08-26T09:08:19.909Z,25.22
2022-08-26T09:13:26.380Z,25.30
2022-08-26T09:18:40.295Z,25.37
2022-08-26T09:23:43.904Z,25.66
2022-08-26T09:28:55.217Z,25.82
2022-08-26T09:34:08.923Z,25.98
2022-08-26T09:39:34.147Z,26.20
2022-08-26T09:44:53.616Z,26.33
2022-08-26T09:50:02.065Z,26.42
2022-08-26T09:55:08.557Z,26.47
2022-08-26T10:00:26.704Z,26.38
2022-08-26T10:05:42.264Z,26.60
2022-08-26T10:10:46.178Z,26.74
2022-08-26T10:15:59.791Z,26.85
2022-08-26T10:21:08.276Z,27.22
2022-08-26T10:26:15.120Z,27.38
2022-08-26T10:31:27.804Z,27.61
2022-08-26T10:37:10.757Z,27.70
2022-08-26T10:42:20.253Z,27.89
2022-08-26T10:47:26.945Z,27.96
2022-08-26T10:52:36.647Z,27.72
2022-08-26T10:57:45.045Z,27.61
2022-08-26T11:02:50.202Z,28.05
2022-08-26T11:08:37.951Z,28.41
2022-08-26T11:14:03.270Z,28.45
2022-08-26T11:19:06.842Z,27.92
2022-08-26T11:24:09.593Z,27.39
2022-08-26T11:29:13.939Z,26.93
2022-08-26T11:34:16.838Z,26.33
2022-08-26T11:39:25.071Z,25.83
2022-08-26T11:44:38.365Z,25.17
2022-08-26T11:49:41.833Z,24.24
2022-08-26T11:55:02.902Z,23.52
2022-08-26T12:00:12.513Z,23.08
2022-08-26T12:05:21.702Z,22.89
2022-08-26T12:10:29.880Z,22.89
2022-08-26T12:15:35.439Z,22.92
2022-08-26T12:20:53.879Z,22.91
2022-08-26T12:26:05.535Z,22.98
2022-08-26T12:31:10.313Z,23.02
2022-08-26T12:36:13.321Z,23.04
2022-08-26T12:41:41.565Z,23.10
2022-08-26T12:46:49.273Z,23.29
2022-08-26T12:51:52.653Z,23.51
2022-08-26T12:56:55.454Z,23.80
2022-08-26T13:02:00.394Z,24.05
2022-08-26T13:07:23.136Z,24.12
2022-08-26T13:12:29.323Z,24.13
2022-08-26T13:17:35.846Z,24.11
2022-08-26T13:22:38.588Z,24.07
2022-08-26T13:27:41.390Z,24.01
2022-08-26T13:32:45.638Z,24.05
2022-08-26T13:37:48.387Z,24.07
2022-08-26T13:42:51.504Z,24.12
2022-08-26T13:47:55.612Z,24.16
2022-08-26T13:52:58.412Z,24.16
2022-08-26T13:58:01.331Z,24.18
2022-08-26T14:03:08.217Z,24.30
2022-08-26T14:08:14.391Z,24.37
2022-08-26T14:13:17.179Z,24.48
2022-08-26T14:18:24.381Z,24.73
2022-08-26T14:23:29.219Z,25.12
2022-08-26T14:28:32.040Z,25.27
2022-08-26T14:33:38.153Z,25.46
2022-08-26T14:38:41.916Z,25.66
2022-08-26T14:43:48.673Z,25.83
2022-08-26T14:48:52.869Z,25.81
2022-08-26T14:54:14.591Z,25.73
2022-08-26T14:59:21.261Z,25.93
2022-08-26T15:04:25.975Z,26.06
2022-08-26T15:09:30.215Z,26.31
2022-08-26T15:14:33.315Z,26.60
2022-08-26T15:19:38.689Z,26.74
2022-08-26T15:24:41.455Z,27.43
2022-08-26T15:29:44.861Z,26.94
2022-08-26T15:34:50.116Z,26.11
2022-08-26T15:39:53.915Z,25.64
2022-08-26T15:44:56.865Z,25.47
2022-08-26T15:50:02.311Z,25.42
2022-08-26T15:55:06.012Z,25.28
2022-08-26T16:00:18.291Z,25.17
2022-08-26T16:05:22.493Z,25.13
2022-08-26T16:10:25.365Z,25.09
2022-08-26T16:15:28.344Z,25.04
2022-08-26T16:20:34.275Z,24.99
2022-08-26T16:25:37.099Z,24.93
2022-08-26T16:30:45.894Z,24.84
2022-08-26T16:40:54.032Z,24.73
2022-08-26T16:45:57.618Z,24.67
2022-08-26T16:51:01.898Z,24.59
2022-08-26T16:56:05.100Z,24.45
2022-08-26T17:01:08.301Z,24.28
2022-08-26T17:06:13.099Z,24.14
2022-08-26T17:11:16.242Z,24.01
2022-08-26T17:16:21.254Z,23.93
2022-08-26T17:21:28.205Z,23.87
2022-08-26T17:26:31.259Z,23.81
2022-08-26T17:31:34.923Z,23.77
2022-08-26T17:36:39.010Z,23.66
2022-08-26T17:41:42.206Z,23.50
2022-08-26T17:46:44.992Z,23.44
2022-08-26T17:51:49.217Z,23.37
2022-08-26T17:56:52.024Z,23.29
2022-08-26T18:01:57.443Z,23.21
2022-08-26T18:07:01.627Z,23.18
2022-08-26T18:12:04.986Z,23.07
2022-08-26T18:17:07.810Z,23.02
2022-08-26T18:22:11.886Z,22.94
2022-08-26T18:27:18.498Z,22.84
2022-08-26T18:32:21.274Z,22.82
2022-08-26T18:37:27.990Z,22.74
2022-08-26T18:42:33.950Z,22.63
2022-08-26T18:47:36.984Z,22.58
2022-08-26T18:52:41.351Z,22.64
2022-08-26T18:57:44.090Z,22.65
2022-08-26T19:02:47.038Z,22.65
2022-08-26T19:07:56.569Z,22.61
2022-08-26T19:13:00.813Z,22.53
2022-08-26T19:18:06.035Z,22.48
2022-08-26T19:23:30.223Z,22.46
2022-08-26T19:28:33.753Z,22.49
2022-08-26T19:33:36.556Z,22.51
2022-08-26T19:38:40.753Z,22.52
2022-08-26T19:43:43.508Z,22.48
2022-08-26T19:48:54.027Z,22.47
2022-08-26T19:54:01.264Z,22.45
2022-08-26T19:59:04.038Z,22.41
2022-08-26T20:04:06.859Z,22.40
2022-08-26T20:09:10.922Z,22.38
2022-08-26T20:14:13.630Z,22.36
2022-08-26T20:19:37.340Z,22.34
2022-08-26T20:24:42.101Z,22.29
2022-08-26T20:29:45.047Z,22.29
2022-08-26T20:34:48.119Z,22.25
2022-08-26T20:39:52.295Z,22.18
2022-08-26T20:44:55.237Z,22.14
2022-08-26T20:49:58.193Z,22.12
2022-08-26T20:55:02.493Z,22.11
2022-08-26T21:00:05.957Z,22.09
2022-08-26T21:05:09.805Z,22.03
2022-08-26T21:10:14.452Z,22.06
2022-08-26T21:15:17.393Z,22.08
2022-08-26T21:20:20.709Z,22.03
2022-08-26T21:25:25.066Z,21.97
2022-08-26T21:30:28.099Z,21.99
2022-08-26T21:35:30.842Z,21.93
2022-08-26T21:40:35.247Z,21.89
2022-08-26T21:45:40.735Z,21.84
2022-08-26T21:50:44.162Z,21.81
2022-08-26T21:55:48.273Z,21.76
2022-08-26T22:00:51.899Z,21.74
2022-08-26T22:05:54.880Z,21.67
2022-08-26T22:11:01.746Z,21.57
2022-08-26T22:16:05.631Z,21.50
2022-08-26T22:21:10.501Z,21.44
2022-08-26T22:26:20.651Z,21.37
2022-08-26T22:31:37.355Z,21.37
2022-08-26T22:36:44.398Z,21.40
2022-08-26T22:41:49.227Z,21.37
2022-08-26T22:46:54.749Z,21.29
2022-08-26T22:51:58.232Z,21.29
2022-08-26T22:57:02.667Z,21.29
2022-08-26T23:02:05.599Z,21.27
2022-08-26T23:07:11.167Z,21.02
2022-08-26T23:12:15.378Z,20.88
2022-08-26T23:17:18.236Z,20.95
2022-08-26T23:22:21.003Z,21.00
2022-08-26T23:27:25.544Z,21.06
2022-08-26T23:32:28.707Z,21.14
2022-08-26T23:37:35.947Z,21.11
2022-08-26T23:42:40.248Z,21.06
2022-08-26T23:47:43.259Z,21.01
2022-08-26T23:53:04.241Z,21.01
2022-08-26T23:58:08.387Z,21.00
